createdAt,value
2023-04-09T00:00:03.499Z,99885.06
2023-04-09T00:02:31.609Z,99887.78
2023-04-09T00:04:59.850Z,99887.00
2023-04-09T00:07:29.403Z,99888.41
2023-04-09T00:09:57.779Z,99887.16
2023-04-09T00:12:26.085Z,99888.59
2023-04-09T00:14:54.390Z,99890.53
2023-04-09T00:17:22.643Z,99898.16
2023-04-09T00:19:50.892Z,99891.50
2023-04-09T00:22:22.065Z,99901.53
2023-04-09T00:24:51.585Z,99894.56
2023-04-09T00:27:19.768Z,99894.75
2023-04-09T00:29:50.029Z,99897.09
2023-04-09T00:32:21.518Z,99901.56
2023-04-09T00:34:50.209Z,99906.34
2023-04-09T00:37:18.283Z,99904.94
2023-04-09T00:39:47.077Z,99897.16
2023-04-09T00:42:16.718Z,99909.06
2023-04-09T00:44:44.883Z,99902.72
2023-04-09T00:47:13.165Z,99916.34
2023-04-09T00:49:41.388Z,99917.78
2023-04-09T00:52:09.584Z,99911.78
2023-04-09T00:54:38.003Z,99912.72
2023-04-09T00:57:06.329Z,99910.81
2023-04-09T00:59:35.922Z,99908.25
2023-04-09T01:02:04.106Z,99909.53
2023-04-09T01:04:32.455Z,99910.66
2023-04-09T01:07:06.974Z,99918.25
2023-04-09T01:09:38.455Z,99908.91
2023-04-09T01:12:13.624Z,99913.03
2023-04-09T01:14:50.968Z,99905.28
2023-04-09T01:17:26.334Z,99908.75
2023-04-09T01:20:00.912Z,99906.38
2023-04-09T01:22:42.478Z,99898.78
2023-04-09T01:25:21.165Z,99909.41
2023-04-09T01:27:59.419Z,99900.97
2023-04-09T01:30:30.607Z,99910.19
2023-04-09T01:33:02.131Z,99911.75
2023-04-09T01:35:31.068Z,99910.63
2023-04-09T01:38:00.517Z,99909.50
2023-04-09T01:40:28.932Z,99910.47
2023-04-09T01:42:59.697Z,99905.25
2023-04-09T01:45:31.927Z,99913.03
2023-04-09T01:48:01.784Z,99922.22
2023-04-09T01:50:30.943Z,99923.63
2023-04-09T01:52:59.240Z,99920.91
2023-04-09T01:55:27.518Z,99921.41
2023-04-09T01:57:56.064Z,99920.63
2023-04-09T02:00:25.780Z,99923.31
2023-04-09T02:03:02.883Z,99924.13
2023-04-09T02:05:38.549Z,99926.66
2023-04-09T02:08:09.707Z,99926.94
2023-04-09T02:10:40.202Z,99927.44
2023-04-09T02:13:12.718Z,99925.38
2023-04-09T02:15:42.803Z,99931.41
2023-04-09T02:18:24.492Z,99932.66
2023-04-09T02:20:54.870Z,99928.84
2023-04-09T02:23:23.250Z,99934.25
2023-04-09T02:25:51.475Z,99932.19
2023-04-09T02:28:19.673Z,99931.25
2023-04-09T02:30:47.813Z,99928.53
2023-04-09T02:33:16.230Z,99933.94
2023-04-09T02:35:46.052Z,99927.25
2023-04-09T02:38:16.153Z,99929.78
2023-04-09T02:40:44.344Z,99936.28
2023-04-09T02:43:12.906Z,99932.50
2023-04-09T02:45:41.035Z,99935.84
2023-04-09T02:48:09.169Z,99930.91
2023-04-09T02:50:37.286Z,99934.38
2023-04-09T02:53:25.655Z,99924.63
2023-04-09T02:55:54.109Z,99929.25
2023-04-09T02:58:22.189Z,99940.63
2023-04-09T03:00:50.248Z,99938.53
2023-04-09T03:03:18.429Z,99940.22
2023-04-09T03:05:46.610Z,99943.47
2023-04-09T03:08:16.302Z,99936.47
2023-04-09T03:10:44.489Z,99929.13
2023-04-09T03:13:13.166Z,99933.78
2023-04-09T03:15:41.696Z,99935.88
2023-04-09T03:18:09.912Z,99933.22
2023-04-09T03:20:39.591Z,99927.16
2023-04-09T03:23:07.715Z,99925.63
2023-04-09T03:25:37.186Z,99926.41
2023-04-09T03:28:05.257Z,99928.31
2023-04-09T03:30:33.409Z,99929.84
2023-04-09T03:33:01.590Z,99930.63
2023-04-09T03:35:29.807Z,99930.94
2023-04-09T03:37:57.964Z,99934.72
2023-04-09T03:40:26.158Z,99938.25
2023-04-09T03:42:55.805Z,99945.59
2023-04-09T03:45:23.983Z,99945.31
2023-04-09T03:47:52.086Z,99952.72
2023-04-09T03:50:20.917Z,99947.44
2023-04-09T03:52:49.179Z,99947.59
2023-04-09T03:55:17.353Z,99955.47
2023-04-09T03:58:03.092Z,99952.44
2023-04-09T04:00:32.553Z,99954.84
2023-04-09T04:03:01.094Z,99958.34
2023-04-09T04:05:29.511Z,99961.78
2023-04-09T04:07:57.545Z,99959.22
2023-04-09T04:10:25.658Z,99968.41
2023-04-09T04:12:55.393Z,99964.81
2023-04-09T04:15:23.530Z,99966.84
2023-04-09T04:17:53.282Z,99963.03
2023-04-09T04:20:21.623Z,99963.34
2023-04-09T04:22:49.813Z,99965.69
2023-04-09T04:25:18.110Z,99968.03
2023-04-09T04:27:46.189Z,99972.34
2023-04-09T04:30:14.693Z,99977.56
2023-04-09T04:32:42.902Z,99978.06
2023-04-09T04:35:12.475Z,99974.91
2023-04-09T04:37:40.675Z,99967.47
2023-04-09T04:40:10.067Z,99976.81
2023-04-09T04:42:38.139Z,99983.25
2023-04-09T04:45:09.639Z,99982.56
2023-04-09T04:47:38.138Z,99976.63
2023-04-09T04:50:07.899Z,99971.06
2023-04-09T04:52:38.941Z,99986.09
2023-04-09T04:55:07.840Z,99974.13
2023-04-09T04:57:35.935Z,99978.91
2023-04-09T05:00:04.460Z,99984.88
2023-04-09T05:02:32.769Z,99982.16
2023-04-09T05:05:00.893Z,99979.16
2023-04-09T05:07:29.050Z,99980.59
2023-04-09T05:09:58.585Z,99987.81
2023-04-09T05:12:26.728Z,99987.06
2023-04-09T05:14:55.291Z,99987.69
2023-04-09T05:17:24.778Z,99980.97
2023-04-09T05:19:53.618Z,99984.19
2023-04-09T05:22:21.928Z,99987.56
2023-04-09T05:24:49.945Z,99980.50
2023-04-09T05:27:20.973Z,99979.28
2023-04-09T05:29:49.334Z,99983.25
2023-04-09T05:32:17.550Z,99984.38
2023-04-09T05:34:45.944Z,99985.31
2023-04-09T05:37:14.286Z,99988.63
2023-04-09T05:39:42.518Z,99981.81
2023-04-09T05:42:11.061Z,99992.72
2023-04-09T05:44:40.956Z,99986.84
2023-04-09T05:47:09.013Z,99995.34
2023-04-09T05:49:37.195Z,99992.81
2023-04-09T05:52:05.379Z,99996.78
2023-04-09T05:54:33.590Z,99995.41
2023-04-09T05:57:01.869Z,100006.09
2023-04-09T05:59:29.974Z,100003.09
2023-04-09T06:01:59.611Z,100003.66
2023-04-09T06:04:27.828Z,100006.75
2023-04-09T06:06:56.292Z,100002.19
2023-04-09T06:09:24.410Z,100012.19
2023-04-09T06:11:52.688Z,100013.44
2023-04-09T06:14:20.900Z,100006.75
2023-04-09T06:16:49.074Z,100010.59
2023-04-09T06:19:19.066Z,100014.38
2023-04-09T06:21:47.449Z,100006.31
2023-04-09T06:24:15.700Z,100010.38
2023-04-09T06:26:43.701Z,100007.69
2023-04-09T06:29:11.896Z,100012.72
2023-04-09T06:31:40.191Z,100010.09
2023-04-09T06:34:08.521Z,100010.34
2023-04-09T06:36:40.577Z,100016.94
2023-04-09T06:39:09.021Z,100013.00
2023-04-09T06:41:37.094Z,100017.44
2023-04-09T06:44:05.349Z,100013.56
2023-04-09T06:46:33.502Z,100011.81
2023-04-09T06:49:01.863Z,100010.31
2023-04-09T06:51:30.174Z,100012.47
2023-04-09T06:54:01.816Z,100012.19
2023-04-09T06:56:29.881Z,100017.22
2023-04-09T06:58:57.958Z,100013.50
2023-04-09T07:01:27.227Z,100024.81
2023-04-09T07:03:56.036Z,100029.41
2023-04-09T07:06:24.485Z,100024.44
2023-04-09T07:08:53.406Z,100023.63
2023-04-09T07:11:23.149Z,100030.50
2023-04-09T07:13:54.640Z,100024.41
2023-04-09T07:16:23.819Z,100028.22
2023-04-09T07:18:52.169Z,100026.13
2023-04-09T07:21:20.601Z,100028.28
2023-04-09T07:23:48.746Z,100022.38
2023-04-09T07:26:16.818Z,100024.94
2023-04-09T07:28:46.567Z,100017.28
2023-04-09T07:31:16.049Z,100013.53
2023-04-09T07:33:44.749Z,100018.38
2023-04-09T07:36:13.051Z,100018.41
2023-04-09T07:38:41.650Z,100022.78
2023-04-09T07:41:12.319Z,100015.22
2023-04-09T07:43:40.777Z,100016.84
2023-04-09T07:46:10.190Z,100019.00
2023-04-09T07:48:38.324Z,100016.44
2023-04-09T07:51:06.424Z,100027.28
2023-04-09T07:53:34.946Z,100017.03
2023-04-09T07:56:03.369Z,100019.41
2023-04-09T07:58:31.839Z,100017.03
2023-04-09T08:00:59.929Z,100017.38
2023-04-09T08:03:29.783Z,100015.59
2023-04-09T08:05:58.171Z,100027.69
2023-04-09T08:08:26.346Z,100021.72
2023-04-09T08:10:55.700Z,100021.16
2023-04-09T08:13:24.688Z,100025.44
2023-04-09T08:15:53.241Z,100025.50
2023-04-09T08:18:21.525Z,100026.22
2023-04-09T08:20:51.102Z,100027.59
2023-04-09T08:23:19.332Z,100028.28
2023-04-09T08:25:48.816Z,100021.88
2023-04-09T08:28:16.905Z,100022.31
2023-04-09T08:30:45.088Z,100015.19
2023-04-09T08:33:13.541Z,100018.00
2023-04-09T08:35:41.955Z,100020.38
2023-04-09T08:38:11.468Z,100017.41
2023-04-09T08:40:39.814Z,100024.06
2023-04-09T08:43:09.563Z,100019.16
2023-04-09T08:45:37.936Z,100010.47
2023-04-09T08:48:10.110Z,100016.22
2023-04-09T08:50:38.624Z,100012.84
2023-04-09T08:53:08.149Z,100014.88
2023-04-09T08:55:38.224Z,100012.22
2023-04-09T08:58:07.613Z,100007.97
2023-04-09T09:00:35.850Z,100009.22
2023-04-09T09:03:06.623Z,100018.44
2023-04-09T09:05:39.197Z,100004.59
2023-04-09T09:08:09.019Z,100012.88
2023-04-09T09:10:44.310Z,100011.81
2023-04-09T09:13:23.914Z,100005.72
2023-04-09T09:15:55.513Z,100005.91
2023-04-09T09:18:39.703Z,100002.88
2023-04-09T09:21:19.624Z,100009.28
2023-04-09T09:23:48.573Z,99996.09
2023-04-09T09:26:20.853Z,99997.72
2023-04-09T09:28:50.152Z,99997.69
2023-04-09T09:31:21.146Z,99986.91
2023-04-09T09:33:50.713Z,99980.94
2023-04-09T09:36:33.525Z,99983.09
2023-04-09T09:39:08.426Z,99985.88
2023-04-09T09:41:38.248Z,99972.34
2023-04-09T09:44:08.302Z,99983.69
2023-04-09T09:46:39.508Z,99982.06
2023-04-09T09:49:08.699Z,99973.41
2023-04-09T09:51:40.722Z,99974.75
2023-04-09T09:54:10.844Z,99969.38
2023-04-09T09:56:43.567Z,99974.75
2023-04-09T09:59:18.083Z,99974.22
2023-04-09T10:01:47.485Z,99971.66
2023-04-09T10:04:16.725Z,99966.28
2023-04-09T10:06:46.985Z,99960.69
2023-04-09T10:09:15.259Z,99964.06
2023-04-09T10:11:48.390Z,99949.53
2023-04-09T10:14:19.044Z,99950.25
2023-04-09T10:16:48.359Z,99955.50
2023-04-09T10:19:17.209Z,99950.25
2023-04-09T10:21:53.621Z,99943.97
2023-04-09T10:24:22.147Z,99943.03
2023-04-09T10:26:55.983Z,99947.91
2023-04-09T10:29:30.056Z,99930.06
2023-04-09T10:32:06.453Z,99929.13
2023-04-09T10:34:37.808Z,99924.63
2023-04-09T10:37:08.971Z,99923.19
2023-04-09T10:39:42.596Z,99914.72
2023-04-09T10:42:15.899Z,99917.72
2023-04-09T10:44:44.523Z,99917.50
2023-04-09T10:47:13.405Z,99911.59
2023-04-09T10:49:43.153Z,99905.34
2023-04-09T10:52:13.905Z,99915.66
2023-04-09T10:54:46.054Z,99911.09
2023-04-09T10:57:21.622Z,99900.50
2023-04-09T10:59:51.612Z,99893.19
2023-04-09T11:02:56.277Z,99891.47
2023-04-09T11:05:31.978Z,99886.50
2023-04-09T11:08:06.267Z,99888.84
2023-04-09T11:10:35.526Z,99877.72
2023-04-09T11:13:05.312Z,99881.28
2023-04-09T11:15:35.831Z,99874.22
2023-04-09T11:18:05.185Z,99866.56
2023-04-09T11:20:35.885Z,99860.47
2023-04-09T11:23:04.504Z,99850.16
2023-04-09T11:25:36.362Z,99850.38
2023-04-09T11:28:08.276Z,99849.25
2023-04-09T11:30:37.811Z,99858.72
2023-04-09T11:33:06.058Z,99840.84
2023-04-09T11:35:36.638Z,99833.84
2023-04-09T11:38:08.386Z,99841.16
2023-04-09T11:40:37.410Z,99835.69
2023-04-09T11:43:09.748Z,99833.25
2023-04-09T11:45:38.283Z,99838.75
2023-04-09T11:48:06.766Z,99832.69
2023-04-09T11:50:35.948Z,99812.41
2023-04-09T11:53:17.244Z,99811.00
2023-04-09T11:55:49.672Z,99806.47
2023-04-09T11:58:19.310Z,99807.69
2023-04-09T12:00:47.762Z,99804.31
2023-04-09T12:03:17.070Z,99806.88
2023-04-09T12:05:50.972Z,99803.41
2023-04-09T12:08:25.018Z,99790.78
2023-04-09T12:10:54.197Z,99789.44
2023-04-09T12:13:33.248Z,99785.75
2023-04-09T12:16:02.770Z,99793.31
2023-04-09T12:18:30.994Z,99787.47
2023-04-09T12:20:59.380Z,99784.06
2023-04-09T12:23:27.518Z,99783.47
2023-04-09T12:25:56.463Z,99784.38
2023-04-09T12:28:26.069Z,99784.47
2023-04-09T12:30:54.243Z,99771.56
2023-04-09T12:33:22.516Z,99773.84
2023-04-09T12:35:50.577Z,99776.84
2023-04-09T12:38:18.782Z,99771.44
2023-04-09T12:40:46.838Z,99767.97
2023-04-09T12:43:15.281Z,99767.53
2023-04-09T12:45:45.133Z,99758.78
2023-04-09T12:48:13.300Z,99756.84
2023-04-09T12:50:41.544Z,99764.03
2023-04-09T12:53:10.591Z,99764.97
2023-04-09T12:55:39.894Z,99763.22
2023-04-09T12:58:09.240Z,99750.34
2023-04-09T13:00:37.352Z,99749.19
2023-04-09T13:03:07.324Z,99751.00
2023-04-09T13:05:36.487Z,99735.19
2023-04-09T13:08:04.994Z,99742.91
2023-04-09T13:10:33.405Z,99741.88
2023-04-09T13:13:01.639Z,99740.22
2023-04-09T13:15:30.070Z,99734.22
2023-04-09T13:17:58.257Z,99729.19
2023-04-09T13:20:30.746Z,99728.09
2023-04-09T13:22:58.962Z,99722.00
2023-04-09T13:25:27.028Z,99727.31
2023-04-09T13:27:55.525Z,99717.44
2023-04-09T13:30:24.268Z,99726.63
2023-04-09T13:32:52.676Z,99719.88
2023-04-09T13:35:20.944Z,99717.00
2023-04-09T13:37:50.665Z,99712.56
2023-04-09T13:40:18.804Z,99706.06
2023-04-09T13:42:47.019Z,99713.91
2023-04-09T13:45:15.131Z,99703.03
2023-04-09T13:47:43.435Z,99703.91
2023-04-09T13:50:13.230Z,99705.81
2023-04-09T13:52:41.453Z,99695.22
2023-04-09T13:55:11.836Z,99703.50
2023-04-09T13:57:40.072Z,99688.66
2023-04-09T14:00:09.760Z,99698.03
2023-04-09T14:02:37.981Z,99692.06
2023-04-09T14:05:08.162Z,99697.94
2023-04-09T14:07:36.641Z,99692.75
2023-04-09T14:10:05.192Z,99690.84
2023-04-09T14:12:34.715Z,99691.69
2023-04-09T14:15:02.809Z,99688.13
2023-04-09T14:17:30.925Z,99684.28
2023-04-09T14:19:59.180Z,99685.13
2023-04-09T14:22:30.017Z,99680.94
2023-04-09T14:24:59.574Z,99670.00
2023-04-09T14:27:27.649Z,99673.25
2023-04-09T14:29:57.251Z,99665.53
2023-04-09T14:32:25.544Z,99667.09
2023-04-09T14:34:56.237Z,99673.84
2023-04-09T14:37:24.329Z,99680.50
2023-04-09T14:39:52.526Z,99672.69
2023-04-09T14:42:21.055Z,99677.88
2023-04-09T14:44:49.250Z,99674.56
2023-04-09T14:47:19.000Z,99671.16
2023-04-09T14:49:47.156Z,99675.59
2023-04-09T14:52:15.392Z,99671.00
2023-04-09T14:54:43.716Z,99663.66
2023-04-09T14:57:11.892Z,99662.13
2023-04-09T14:59:39.977Z,99671.16
2023-04-09T15:02:08.068Z,99667.69
2023-04-09T15:04:37.894Z,99658.56
2023-04-09T15:07:06.921Z,99658.41
2023-04-09T15:09:35.331Z,99655.31
2023-04-09T15:12:03.663Z,99648.44
2023-04-09T15:14:33.725Z,99644.56
2023-04-09T15:17:01.873Z,99642.25
2023-04-09T15:19:30.934Z,99635.25
2023-04-09T15:22:01.776Z,99642.34
2023-04-09T15:24:30.490Z,99644.25
2023-04-09T15:26:58.752Z,99636.47
2023-04-09T15:29:26.843Z,99632.97
2023-04-09T15:31:55.370Z,99629.06
2023-04-09T15:34:23.625Z,99625.53
2023-04-09T15:36:51.731Z,99625.53
2023-04-09T15:39:21.452Z,99630.59
2023-04-09T15:41:49.750Z,99625.09
2023-04-09T15:44:18.736Z,99616.78
2023-04-09T15:46:46.870Z,99623.28
2023-04-09T15:49:15.115Z,99620.28
2023-04-09T15:51:43.544Z,99619.78
2023-04-09T15:54:12.070Z,99618.66
2023-04-09T15:56:41.660Z,99621.28
2023-04-09T15:59:10.068Z,99613.44
2023-04-09T16:01:38.593Z,99622.22
2023-04-09T16:04:08.180Z,99619.63
2023-04-09T16:06:36.595Z,99626.38
2023-04-09T16:09:04.913Z,99619.31
2023-04-09T16:11:35.941Z,99613.78
2023-04-09T16:14:05.503Z,99620.00
2023-04-09T16:16:33.641Z,99617.44
2023-04-09T16:19:04.462Z,99630.25
2023-04-09T16:21:32.646Z,99623.16
2023-04-09T16:24:02.052Z,99625.91
2023-04-09T16:26:30.158Z,99624.34
2023-04-09T16:29:03.220Z,99613.31
2023-04-09T16:31:32.832Z,99626.03
2023-04-09T16:34:01.107Z,99623.91
2023-04-09T16:36:29.492Z,99617.19
2023-04-09T16:38:57.682Z,99618.84
2023-04-09T16:41:28.106Z,99620.81
2023-04-09T16:43:56.184Z,99618.06
2023-04-09T16:46:25.012Z,99625.34
2023-04-09T16:48:54.959Z,99618.94
2023-04-09T16:51:23.288Z,99614.06
2023-04-09T16:53:51.426Z,99620.19
2023-04-09T16:56:19.784Z,99625.63
2023-04-09T16:58:47.852Z,99617.31
2023-04-09T17:01:16.129Z,99624.06
2023-04-09T17:03:44.229Z,99626.25
2023-04-09T17:06:13.830Z,99630.75
2023-04-09T17:08:42.199Z,99631.81
2023-04-09T17:11:10.338Z,99631.03
2023-04-09T17:13:38.553Z,99635.34
2023-04-09T17:16:07.634Z,99634.38
2023-04-09T17:18:35.942Z,99629.56
2023-04-09T17:21:04.261Z,99639.22
2023-04-09T17:23:35.433Z,99641.56
2023-04-09T17:26:03.525Z,99646.91
2023-04-09T17:28:32.094Z,99655.06
2023-04-09T17:31:00.393Z,99652.00
2023-04-09T17:33:28.674Z,99658.72
2023-04-09T17:35:57.744Z,99661.00
2023-04-09T17:38:27.302Z,99661.72
2023-04-09T17:40:56.779Z,99671.00
2023-04-09T17:43:25.130Z,99665.38
2023-04-09T17:45:53.344Z,99673.53
2023-04-09T17:48:21.502Z,99674.47
2023-04-09T17:50:50.230Z,99672.19
2023-04-09T17:53:18.603Z,99682.88
2023-04-09T17:55:48.884Z,99682.03
2023-04-09T17:58:18.768Z,99685.91
2023-04-09T18:00:47.031Z,99690.06
2023-04-09T18:03:15.956Z,99695.91
2023-04-09T18:05:44.534Z,99697.41
2023-04-09T18:08:12.753Z,99693.22
2023-04-09T18:10:40.964Z,99707.50
2023-04-09T18:13:09.895Z,99702.25
2023-04-09T18:15:39.785Z,99709.03
2023-04-09T18:18:07.881Z,99715.06
2023-04-09T18:20:35.968Z,99711.88
2023-04-09T18:23:04.078Z,99714.56
2023-04-09T18:25:32.348Z,99720.91
2023-04-09T18:28:00.474Z,99730.50
2023-04-09T18:30:28.850Z,99734.72
2023-04-09T18:32:58.579Z,99728.34
2023-04-09T18:35:27.054Z,99732.84
2023-04-09T18:37:55.567Z,99733.72
2023-04-09T18:40:23.810Z,99738.44
2023-04-09T18:42:53.076Z,99740.22
2023-04-09T18:45:21.425Z,99749.38
2023-04-09T18:47:51.211Z,99759.66
2023-04-09T18:50:21.212Z,99746.34
2023-04-09T18:52:49.329Z,99750.22
2023-04-09T18:55:18.359Z,99750.16
2023-04-09T18:57:47.457Z,99760.56
2023-04-09T19:00:16.308Z,99752.50
2023-04-09T19:02:44.987Z,99759.00
2023-04-09T19:05:14.298Z,99755.41
2023-04-09T19:07:43.885Z,99756.47
2023-04-09T19:10:12.228Z,99755.59
2023-04-09T19:12:46.775Z,99757.09
2023-04-09T19:15:15.024Z,99755.59
2023-04-09T19:17:43.231Z,99753.84
2023-04-09T19:20:12.640Z,99744.91
2023-04-09T19:22:40.842Z,99746.06
2023-04-09T19:25:11.540Z,99754.38
2023-04-09T19:27:43.037Z,99750.59
2023-04-09T19:30:12.023Z,99753.78
2023-04-09T19:32:41.375Z,99748.59
2023-04-09T19:35:10.586Z,99748.34
2023-04-09T19:37:39.820Z,99752.47
2023-04-09T19:40:11.014Z,99749.56
2023-04-09T19:42:40.285Z,99754.13
2023-04-09T19:45:09.794Z,99750.88
2023-04-09T19:47:38.071Z,99764.06
2023-04-09T19:50:07.112Z,99758.97
2023-04-09T19:52:35.445Z,99758.09
2023-04-09T19:55:05.132Z,99755.53
2023-04-09T19:57:35.017Z,99753.06
2023-04-09T20:00:05.125Z,99753.19
2023-04-09T20:02:33.617Z,99757.25
2023-04-09T20:05:02.027Z,99756.06
2023-04-09T20:07:30.181Z,99758.41
2023-04-09T20:09:58.221Z,99756.63
2023-04-09T20:12:29.686Z,99757.63
2023-04-09T20:15:00.059Z,99760.78
2023-04-09T20:17:28.244Z,99763.13
2023-04-09T20:19:56.911Z,99755.66
2023-04-09T20:22:25.230Z,99760.97
2023-04-09T20:24:55.538Z,99755.97
2023-04-09T20:27:23.855Z,99755.44
2023-04-09T20:29:53.080Z,99756.53
2023-04-09T20:32:22.886Z,99754.22
2023-04-09T20:34:51.307Z,99754.75
2023-04-09T20:37:19.485Z,99759.72
2023-04-09T20:39:47.450Z,99757.25
2023-04-09T20:42:15.627Z,99758.16
2023-04-09T20:44:44.958Z,99755.31
2023-04-09T20:47:13.228Z,99755.56
2023-04-09T20:49:45.974Z,99749.69
2023-04-09T20:52:14.691Z,99758.03
2023-04-09T20:54:43.468Z,99755.38
2023-04-09T20:57:13.754Z,99749.03
2023-04-09T20:59:42.370Z,99755.59
2023-04-09T21:02:10.672Z,99748.63
2023-04-09T21:04:38.823Z,99755.59
2023-04-09T21:07:08.372Z,99750.03
2023-04-09T21:09:36.604Z,99754.66
2023-04-09T21:12:04.666Z,99751.34
2023-04-09T21:14:33.036Z,99764.66
2023-04-09T21:17:01.281Z,99756.09
2023-04-09T21:19:29.403Z,99749.84
2023-04-09T21:21:57.806Z,99760.84
2023-04-09T21:24:28.069Z,99750.72
2023-04-09T21:26:57.205Z,99760.09
2023-04-09T21:29:26.286Z,99756.16
2023-04-09T21:31:54.672Z,99759.50
2023-04-09T21:34:23.046Z,99757.25
2023-04-09T21:36:51.487Z,99751.88
2023-04-09T21:39:19.620Z,99748.91
2023-04-09T21:41:49.213Z,99753.56
2023-04-09T21:44:17.379Z,99752.19
2023-04-09T21:46:46.375Z,99757.53
2023-04-09T21:49:14.908Z,99759.66
2023-04-09T21:51:43.188Z,99754.34
2023-04-09T21:54:11.714Z,99751.19
2023-04-09T21:56:58.534Z,99751.44
2023-04-09T21:59:28.329Z,99759.41
2023-04-09T22:01:56.787Z,99762.59
2023-04-09T22:04:25.044Z,99756.94
2023-04-09T22:06:54.866Z,99756.72
2023-04-09T22:09:23.042Z,99763.38
2023-04-09T22:11:51.197Z,99755.84
2023-04-09T22:14:19.936Z,99759.66
2023-04-09T22:16:49.496Z,99756.69
2023-04-09T22:19:17.640Z,99760.84
2023-04-09T22:21:49.699Z,99759.72
2023-04-09T22:24:18.283Z,99768.50
2023-04-09T22:26:46.966Z,99764.91
2023-04-09T22:29:15.242Z,99759.75
2023-04-09T22:31:43.534Z,99756.38
2023-04-09T22:34:20.597Z,99757.38
2023-04-09T22:36:49.145Z,99751.97
2023-04-09T22:39:17.357Z,99757.84
2023-04-09T22:41:45.546Z,99752.78
2023-04-09T22:44:13.756Z,99754.56
2023-04-09T22:46:42.403Z,99759.72
2023-04-09T22:49:11.605Z,99755.63
2023-04-09T22:51:41.935Z,99755.84
2023-04-09T22:54:10.560Z,99740.16
2023-04-09T22:56:38.849Z,99742.66
2023-04-09T22:59:07.235Z,99743.09
2023-04-09T23:01:35.688Z,99737.34
2023-04-09T23:04:04.122Z,99732.19
2023-04-09T23:06:32.295Z,99723.19
2023-04-09T23:09:02.252Z,99730.16
2023-04-09T23:11:30.738Z,99734.22
2023-04-09T23:13:59.081Z,99727.47
2023-04-09T23:16:27.187Z,99736.16
2023-04-09T23:18:55.727Z,99730.19
2023-04-09T23:21:24.023Z,99729.59
2023-04-09T23:23:52.931Z,99725.22
2023-04-09T23:26:22.657Z,99729.06
2023-04-09T23:28:50.961Z,99722.06
2023-04-09T23:31:19.134Z,99721.38
2023-04-09T23:33:47.381Z,99710.91
2023-04-09T23:36:15.528Z,99712.63
2023-04-09T23:38:46.950Z,99716.66
2023-04-09T23:41:15.786Z,99707.84
2023-04-09T23:43:46.078Z,99702.56
2023-04-09T23:46:14.297Z,99707.75
2023-04-09T23:48:42.348Z,99699.75
2023-04-09T23:51:10.527Z,99703.22
2023-04-09T23:53:39.257Z,99703.13
2023-04-09T23:56:07.903Z,99699.28
2023-04-09T23:58:36.025Z,99695.22
